New Boston, MI (48164)

7:33 PM EDT on April 24, 2017 (GMT -0400)
HAGGERTY RD. 1.5 MILES SOUTH OF I-94 | | Change Station

Elev 640 ft 42.19 °N, 83.44 °W | Updated 18 seconds ago

Partly Cloudy
Partly Cloudy
66.9 °F
Feels Like 66.9 °F
N
0.0
Wind Variable Wind from SSW
Gusts 0.0 mph

Today
High -- | Low -- °F
--% Chance of Precip.
Yesterday
High -- | Low -- °F
Precip. -- in
Pressure 29.94 in
Visibility 10.0 miles
Clouds Mostly Cloudy 22000 ft
Dew Point 25 °F
Humidity 20%
Rainfall 0.00 in
Snow Depth Not available.
6:38 AM 8:25 PM
Waning Crescent, 3% visible
METAR KDTW 242253Z 11011G15KT 10SM BKN220 20/02 A2993 RMK AO2 SLP137 T02000022
Pressure 29.94 in
Visibility 10.0 miles
Clouds Mostly Cloudy 22000 ft
Dew Point 25 °F
Humidity 20%
Rainfall 0.00 in
Snow Depth Not available.
6:38 AM 8:25 PM
Waning Crescent, 3% visible
METAR KDTW 242253Z 11011G15KT 10SM BKN220 20/02 A2993 RMK AO2 SLP137 T02000022

Get Severe Weather Alerts

Thanks for signing up!

Be on the lookout for a verification email in your inbox.

You'll start receiving the daily forecast at 8 AM.

×

10-Day Weather Forecast

Almanac

Astronomy

Apr. 24, 2017 Rise Set
Actual Time
Civil Twilight
Nautical Twilight
Astronomical Twilight
Moon
Length of Visible Light
Length of Day
Tomorrow will be .
, % of the Moon is Illuminated

Today's Extremes

State Highs State Lows

Community

WunderPhotos

WunderBlog® & News

Nearby

Air Quality

  Air Quality AQ Index Pollutant
Not available.

Snow Depth

Station Depth Elevation

Earthquake Activity

City Distance Mag. Time & Date
Minimum magnitude displayed is 2.5.

Coastal Water Temperatures

Place Temperature

Stations

Nearby Weather Stations

Station Location Temp. Windchill Dew Point Humidity Wind Precip. Elev Updated Type
                   

Watches & Warnings

There are currently no watches in effect.